createdAt,value
2023-01-26T00:00:16.933Z,0.41
2023-01-26T00:01:16.473Z,0.39
2023-01-26T00:02:16.783Z,0.39
2023-01-26T00:03:17.292Z,0.43
2023-01-26T00:04:16.800Z,0.42
2023-01-26T00:05:17.333Z,0.43
2023-01-26T00:06:16.894Z,0.48
2023-01-26T00:07:16.401Z,0.48
2023-01-26T00:08:16.899Z,0.45
2023-01-26T00:09:16.386Z,0.49
2023-01-26T00:10:16.890Z,0.51
2023-01-26T00:11:16.380Z,0.49
2023-01-26T00:12:17.140Z,0.46
2023-01-26T00:13:16.640Z,0.51
2023-01-26T00:14:17.145Z,0.43
2023-01-26T00:15:16.654Z,0.43
2023-01-26T00:16:17.257Z,0.42
2023-01-26T00:17:16.902Z,0.41
2023-01-26T00:18:16.430Z,0.42
2023-01-26T00:19:16.957Z,0.39
2023-01-26T00:20:16.469Z,0.38
2023-01-26T00:21:16.967Z,0.43
2023-01-26T00:22:16.423Z,0.51
2023-01-26T00:23:16.898Z,0.51
2023-01-26T00:24:16.410Z,0.46
2023-01-26T00:25:16.929Z,0.48
2023-01-26T00:26:16.419Z,0.52
2023-01-26T00:27:16.929Z,0.53
2023-01-26T00:28:16.465Z,0.48
2023-01-26T00:29:17.073Z,0.45
2023-01-26T00:30:16.603Z,0.42
2023-01-26T00:31:17.151Z,0.38
2023-01-26T00:32:16.843Z,0.29
2023-01-26T00:33:16.350Z,0.26
2023-01-26T00:34:16.878Z,0.25
2023-01-26T00:35:16.345Z,0.26
2023-01-26T00:36:16.838Z,0.26
2023-01-26T00:37:16.338Z,0.26
2023-01-26T00:38:16.832Z,0.34
2023-01-26T00:39:16.348Z,0.36
2023-01-26T00:40:16.862Z,0.42
2023-01-26T00:41:16.354Z,0.43
2023-01-26T00:42:16.933Z,0.43
2023-01-26T00:43:16.426Z,0.45
2023-01-26T00:44:16.917Z,0.46
2023-01-26T00:45:16.424Z,0.46
2023-01-26T00:46:16.969Z,0.48
2023-01-26T00:47:16.536Z,0.52
2023-01-26T00:48:17.036Z,0.51
2023-01-26T00:49:16.530Z,0.55
2023-01-26T00:50:17.062Z,0.49
2023-01-26T00:51:16.554Z,0.46
2023-01-26T00:52:16.998Z,0.48
2023-01-26T00:53:16.487Z,0.49
2023-01-26T00:54:16.987Z,0.48
2023-01-26T00:55:16.483Z,0.49
2023-01-26T00:56:17.001Z,0.49
2023-01-26T00:57:16.515Z,0.46
2023-01-26T00:58:17.020Z,0.45
2023-01-26T00:59:16.534Z,0.43
2023-01-26T01:00:17.052Z,0.39
2023-01-26T01:01:16.607Z,0.39
2023-01-26T01:02:17.137Z,0.41
2023-01-26T01:03:16.749Z,0.43
2023-01-26T01:04:17.250Z,0.48
2023-01-26T01:05:16.748Z,0.48
2023-01-26T01:06:17.250Z,0.51
2023-01-26T01:07:16.782Z,0.52
2023-01-26T01:08:16.322Z,0.51
2023-01-26T01:09:16.811Z,0.49
2023-01-26T01:10:16.308Z,0.49
2023-01-26T01:11:16.803Z,0.53
2023-01-26T01:12:17.318Z,0.51
2023-01-26T01:13:16.833Z,0.51
2023-01-26T01:14:16.310Z,0.49
2023-01-26T01:15:16.807Z,0.51
2023-01-26T01:16:16.399Z,0.51
2023-01-26T01:17:17.105Z,0.55
2023-01-26T01:18:16.610Z,0.55
2023-01-26T01:19:17.124Z,0.55
2023-01-26T01:20:16.690Z,0.53
2023-01-26T01:21:17.208Z,0.56
2023-01-26T01:22:16.591Z,0.52
2023-01-26T01:23:17.096Z,0.52
2023-01-26T01:24:16.637Z,0.52
2023-01-26T01:25:17.227Z,0.52
2023-01-26T01:26:16.732Z,0.45
2023-01-26T01:27:17.259Z,0.36
2023-01-26T01:28:16.764Z,0.38
2023-01-26T01:29:17.271Z,0.35
2023-01-26T01:30:16.779Z,0.25
2023-01-26T01:31:17.462Z,0.26
2023-01-26T01:32:17.077Z,0.32
2023-01-26T01:33:16.564Z,0.36
2023-01-26T01:34:17.075Z,0.25
2023-01-26T01:35:16.575Z,0.31
2023-01-26T01:36:17.124Z,0.29
2023-01-26T01:37:16.669Z,0.29
2023-01-26T01:38:17.159Z,0.29
2023-01-26T01:40:16.954Z,0.35
2023-01-26T01:41:16.447Z,0.38
2023-01-26T01:42:16.991Z,0.36
2023-01-26T01:43:16.482Z,0.35
2023-01-26T01:44:17.008Z,0.31
2023-01-26T01:45:16.556Z,0.32
2023-01-26T01:46:17.084Z,0.36
2023-01-26T01:47:16.641Z,0.41
2023-01-26T01:48:17.149Z,0.41
2023-01-26T01:49:16.697Z,0.41
2023-01-26T01:50:17.218Z,0.39
2023-01-26T01:51:16.827Z,0.38
2023-01-26T01:52:16.863Z,0.38
2023-01-26T01:53:16.359Z,0.36
2023-01-26T01:54:16.865Z,0.35
2023-01-26T01:55:16.386Z,0.38
2023-01-26T01:56:16.872Z,0.36
2023-01-26T01:57:16.359Z,0.36
2023-01-26T01:58:16.844Z,0.38
2023-01-26T01:59:16.377Z,0.39
2023-01-26T02:00:17.004Z,0.39
2023-01-26T02:01:16.511Z,0.42
2023-01-26T02:02:16.996Z,0.43
2023-01-26T02:03:16.620Z,0.43
2023-01-26T02:04:17.125Z,0.43
2023-01-26T02:05:16.620Z,0.45
2023-01-26T02:06:17.127Z,0.42
2023-01-26T02:07:16.623Z,0.42
2023-01-26T02:08:17.112Z,0.39
2023-01-26T02:09:16.603Z,0.41
2023-01-26T02:10:17.119Z,0.43
2023-01-26T02:11:16.618Z,0.34
2023-01-26T02:12:17.107Z,0.29
2023-01-26T02:13:16.623Z,0.28
2023-01-26T02:14:17.135Z,0.32
2023-01-26T02:15:16.650Z,0.34
2023-01-26T02:16:17.149Z,0.32
2023-01-26T02:17:16.713Z,0.29
2023-01-26T02:18:17.219Z,0.29
2023-01-26T02:19:16.710Z,0.29
2023-01-26T02:20:17.201Z,0.29
2023-01-26T02:21:16.706Z,0.28
2023-01-26T02:22:17.000Z,0.28
2023-01-26T02:23:16.512Z,0.26
2023-01-26T02:24:17.071Z,0.28
2023-01-26T02:25:16.716Z,0.31
2023-01-26T02:26:17.231Z,0.32
2023-01-26T02:27:16.786Z,0.34
2023-01-26T02:28:17.281Z,0.34
2023-01-26T02:29:16.795Z,0.22
2023-01-26T02:30:16.366Z,0.21
2023-01-26T02:31:16.915Z,0.21
2023-01-26T02:32:16.475Z,0.22
2023-01-26T02:33:16.961Z,0.14
2023-01-26T02:34:16.443Z,0.08
2023-01-26T02:35:16.965Z,0.15
2023-01-26T02:36:16.485Z,0.07
2023-01-26T02:37:16.960Z,0.10
2023-01-26T02:38:16.475Z,0.14
2023-01-26T02:39:16.978Z,0.18
2023-01-26T02:40:16.485Z,0.15
2023-01-26T02:41:17.011Z,0.10
2023-01-26T02:42:16.357Z,0.04
2023-01-26T02:43:16.866Z,0.08
2023-01-26T02:44:16.370Z,0.11
2023-01-26T02:45:16.903Z,0.10
2023-01-26T02:46:16.441Z,0.11
2023-01-26T02:47:16.993Z,0.13
2023-01-26T02:48:16.493Z,0.15
2023-01-26T02:49:16.995Z,0.17
2023-01-26T02:50:16.514Z,0.17
2023-01-26T02:51:16.999Z,0.18
2023-01-26T02:52:16.752Z,0.15
2023-01-26T02:53:17.250Z,0.18
2023-01-26T02:54:16.746Z,0.17
2023-01-26T02:55:17.277Z,0.17
2023-01-26T02:56:16.795Z,0.20
2023-01-26T02:57:17.326Z,0.21
2023-01-26T02:58:16.828Z,0.21
2023-01-26T02:59:16.330Z,0.21
2023-01-26T03:00:16.821Z,0.21
2023-01-26T03:01:16.353Z,0.24
2023-01-26T03:02:17.166Z,0.25
2023-01-26T03:03:16.732Z,0.25
2023-01-26T03:04:17.203Z,0.25
2023-01-26T03:05:16.702Z,0.24
2023-01-26T03:06:17.234Z,0.28
2023-01-26T03:07:16.777Z,0.25
2023-01-26T03:08:17.257Z,0.29
2023-01-26T03:09:16.754Z,0.29
2023-01-26T03:10:17.272Z,0.25
2023-01-26T03:11:16.758Z,0.21
2023-01-26T03:12:16.514Z,0.21
2023-01-26T03:13:17.011Z,0.21
2023-01-26T03:14:16.522Z,0.21
2023-01-26T03:15:17.064Z,0.20
2023-01-26T03:16:16.699Z,0.17
2023-01-26T03:17:16.385Z,0.20
2023-01-26T03:18:16.875Z,0.22
2023-01-26T03:19:16.423Z,0.21
2023-01-26T03:20:16.918Z,0.21
2023-01-26T03:21:16.414Z,0.20
2023-01-26T03:22:17.219Z,0.20
2023-01-26T03:23:16.731Z,0.20
2023-01-26T03:24:17.300Z,0.15
2023-01-26T03:25:16.861Z,0.20
2023-01-26T03:26:16.355Z,0.21
2023-01-26T03:27:16.860Z,0.17
2023-01-26T03:28:16.332Z,0.13
2023-01-26T03:29:16.860Z,0.15
2023-01-26T03:30:16.396Z,0.14
2023-01-26T03:31:17.063Z,0.20
2023-01-26T03:32:16.598Z,0.15
2023-01-26T03:33:17.093Z,0.08
2023-01-26T03:34:16.609Z,0.10
2023-01-26T03:35:17.111Z,0.10
2023-01-26T03:36:16.601Z,0.07
2023-01-26T03:37:17.197Z,0.08
2023-01-26T03:38:16.708Z,0.14
2023-01-26T03:39:17.219Z,0.15
2023-01-26T03:40:16.696Z,0.15
2023-01-26T03:41:17.183Z,0.17
2023-01-26T03:42:16.928Z,0.17
2023-01-26T03:43:16.424Z,0.18
2023-01-26T03:44:16.918Z,0.18
2023-01-26T03:45:16.418Z,0.21
2023-01-26T03:46:16.972Z,0.22
2023-01-26T03:47:16.614Z,0.24
2023-01-26T03:48:17.125Z,0.25
2023-01-26T03:49:16.647Z,0.28
2023-01-26T03:50:17.176Z,0.28
2023-01-26T03:51:16.698Z,0.26
2023-01-26T03:52:17.231Z,0.28
2023-01-26T03:53:16.733Z,0.25
2023-01-26T03:54:17.230Z,0.28
2023-01-26T03:55:16.690Z,0.29
2023-01-26T03:56:17.167Z,0.29
2023-01-26T03:57:16.647Z,0.28
2023-01-26T03:58:17.169Z,0.24
2023-01-26T03:59:16.688Z,0.21
2023-01-26T04:00:17.210Z,0.21
2023-01-26T04:01:16.709Z,0.18
2023-01-26T04:02:16.356Z,0.22
2023-01-26T04:03:17.018Z,0.21
2023-01-26T04:04:16.523Z,0.18
2023-01-26T04:05:17.021Z,0.21
2023-01-26T04:06:16.806Z,0.21
2023-01-26T04:07:16.313Z,0.21
2023-01-26T04:08:16.816Z,0.21
2023-01-26T04:09:17.293Z,0.20
2023-01-26T04:10:16.802Z,0.24
2023-01-26T04:11:17.299Z,0.24
2023-01-26T04:12:16.797Z,0.24
2023-01-26T04:13:16.316Z,0.21
2023-01-26T04:14:16.829Z,0.22
2023-01-26T04:15:16.337Z,0.24
2023-01-26T04:16:16.864Z,0.25
2023-01-26T04:17:16.413Z,0.22
2023-01-26T04:18:16.915Z,0.22
2023-01-26T04:19:16.435Z,0.22
2023-01-26T04:20:16.943Z,0.24
2023-01-26T04:21:16.490Z,0.25
2023-01-26T04:22:17.087Z,0.25
2023-01-26T04:23:16.595Z,0.21
2023-01-26T04:24:17.518Z,0.20
2023-01-26T04:25:17.298Z,0.17
2023-01-26T04:26:16.802Z,0.15
2023-01-26T04:27:16.307Z,0.17
2023-01-26T04:28:16.801Z,0.14
2023-01-26T04:29:17.307Z,0.13
2023-01-26T04:30:16.944Z,0.10
2023-01-26T04:31:16.610Z,0.13
2023-01-26T04:32:16.687Z,0.15
2023-01-26T04:33:17.162Z,0.13
2023-01-26T04:34:16.659Z,0.15
2023-01-26T04:35:17.185Z,0.20
2023-01-26T04:36:16.702Z,0.18
2023-01-26T04:37:17.212Z,0.13
2023-01-26T04:38:16.716Z,0.11
2023-01-26T04:39:17.274Z,0.17
2023-01-26T04:40:16.805Z,0.15
2023-01-26T04:41:16.443Z,0.17
2023-01-26T04:42:16.975Z,0.21
2023-01-26T04:43:16.516Z,0.22
2023-01-26T04:44:17.011Z,0.22
2023-01-26T04:45:16.502Z,0.22
2023-01-26T04:46:17.034Z,0.24
2023-01-26T04:47:16.547Z,0.17
2023-01-26T04:48:17.033Z,0.14
2023-01-26T04:49:16.509Z,0.08
2023-01-26T04:50:17.046Z,0.13
2023-01-26T04:51:16.532Z,0.20
2023-01-26T04:52:17.086Z,0.17
2023-01-26T04:53:16.603Z,0.15
2023-01-26T04:54:17.114Z,0.21
2023-01-26T04:55:16.640Z,0.15
2023-01-26T04:56:17.132Z,0.18
2023-01-26T04:57:16.640Z,0.18
2023-01-26T04:58:17.132Z,0.20
2023-01-26T04:59:16.624Z,0.18
2023-01-26T05:00:17.127Z,0.24
2023-01-26T05:01:16.688Z,0.17
2023-01-26T05:02:17.010Z,0.18
2023-01-26T05:03:16.534Z,0.17
2023-01-26T05:04:17.091Z,0.14
2023-01-26T05:05:16.653Z,0.11
2023-01-26T05:06:17.194Z,0.13
2023-01-26T05:07:16.697Z,0.11
2023-01-26T05:08:17.233Z,0.07
2023-01-26T05:09:16.738Z,0.10
2023-01-26T05:10:17.457Z,0.10
2023-01-26T05:11:16.483Z,0.14
2023-01-26T05:12:16.364Z,0.13
2023-01-26T05:13:16.912Z,0.10
2023-01-26T05:14:16.413Z,0.07
2023-01-26T05:15:16.921Z,0.11
2023-01-26T05:16:16.413Z,0.10
2023-01-26T05:17:16.950Z,0.13
2023-01-26T05:18:16.465Z,0.15
2023-01-26T05:19:16.975Z,0.17
2023-01-26T05:20:16.480Z,0.22
2023-01-26T05:21:16.975Z,0.20
2023-01-26T05:22:16.476Z,0.15
2023-01-26T05:23:16.958Z,0.17
2023-01-26T05:24:16.542Z,0.14
2023-01-26T05:25:17.093Z,0.11
2023-01-26T05:26:16.609Z,0.10
2023-01-26T05:27:17.091Z,0.10
2023-01-26T05:28:16.582Z,0.05
2023-01-26T05:29:17.066Z,0.05
2023-01-26T05:30:16.848Z,0.10
2023-01-26T05:31:16.889Z,0.13
2023-01-26T05:32:16.661Z,0.14
2023-01-26T05:33:17.167Z,0.13
2023-01-26T05:34:16.695Z,0.11
2023-01-26T05:35:17.215Z,0.13
2023-01-26T05:36:16.736Z,0.11
2023-01-26T05:37:17.241Z,0.08
2023-01-26T05:38:16.756Z,0.08
2023-01-26T05:39:17.292Z,0.04
2023-01-26T05:40:16.814Z,-0.00
2023-01-26T05:41:16.321Z,0.02
2023-01-26T05:42:16.879Z,0.02
2023-01-26T05:43:16.368Z,0.01
2023-01-26T05:44:16.972Z,0.05
2023-01-26T05:45:16.488Z,0.07
2023-01-26T05:46:17.055Z,0.07
2023-01-26T05:47:16.589Z,0.07
2023-01-26T05:48:17.081Z,0.04
2023-01-26T05:49:16.603Z,0.07
2023-01-26T05:50:17.100Z,0.07
2023-01-26T05:51:16.585Z,0.07
2023-01-26T05:52:17.164Z,0.05
2023-01-26T05:53:16.683Z,0.02
2023-01-26T05:54:17.219Z,0.02
2023-01-26T05:55:16.705Z,0.07
2023-01-26T05:56:17.195Z,0.05
2023-01-26T05:57:16.699Z,0.04
2023-01-26T05:58:17.219Z,0.08
2023-01-26T05:59:16.748Z,0.07
2023-01-26T06:00:17.246Z,0.10
2023-01-26T06:01:16.741Z,0.08
2023-01-26T06:02:16.691Z,-0.03
2023-01-26T06:03:16.387Z,-0.06
2023-01-26T06:04:16.880Z,-0.03
2023-01-26T06:05:16.473Z,-0.05
2023-01-26T06:06:16.957Z,-0.05
2023-01-26T06:07:16.487Z,0.02
2023-01-26T06:08:17.018Z,-0.02
2023-01-26T06:09:16.564Z,0.02
2023-01-26T06:10:17.095Z,0.05
2023-01-26T06:11:16.592Z,0.02
2023-01-26T06:12:16.393Z,0.01
2023-01-26T06:13:16.904Z,0.01
2023-01-26T06:14:16.394Z,-0.00
2023-01-26T06:15:16.948Z,-0.00
2023-01-26T06:16:16.488Z,-0.03
2023-01-26T06:17:17.022Z,-0.00
2023-01-26T06:18:16.546Z,0.05
2023-01-26T06:19:17.050Z,0.05
2023-01-26T06:20:16.546Z,0.05
2023-01-26T06:21:17.062Z,-0.00
2023-01-26T06:22:16.769Z,-0.02
2023-01-26T06:23:17.319Z,-0.05
2023-01-26T06:24:16.851Z,-0.06
2023-01-26T06:25:16.411Z,-0.02
2023-01-26T06:26:16.922Z,0.01
2023-01-26T06:27:16.429Z,-0.00
2023-01-26T06:28:16.898Z,0.02
2023-01-26T06:29:16.372Z,0.02
2023-01-26T06:30:16.881Z,0.02
2023-01-26T06:31:16.655Z,0.04
2023-01-26T06:32:16.784Z,0.02
2023-01-26T06:33:16.306Z,0.04
2023-01-26T06:34:16.796Z,0.07
2023-01-26T06:35:16.326Z,0.10
2023-01-26T06:36:16.836Z,0.11
2023-01-26T06:37:16.342Z,0.11
2023-01-26T06:38:16.860Z,0.08
2023-01-26T06:39:16.363Z,0.08
2023-01-26T06:40:16.872Z,0.11
2023-01-26T06:41:16.373Z,0.11
2023-01-26T06:42:16.941Z,0.07
2023-01-26T06:43:16.457Z,0.04
2023-01-26T06:44:16.943Z,0.02
2023-01-26T06:45:16.446Z,0.02
2023-01-26T06:46:16.949Z,0.07
2023-01-26T06:47:16.536Z,0.08
2023-01-26T06:48:17.049Z,0.02
2023-01-26T06:49:16.587Z,0.04
2023-01-26T06:50:17.129Z,0.04
2023-01-26T06:51:16.652Z,0.07
2023-01-26T06:52:17.076Z,0.05
2023-01-26T06:53:16.577Z,0.07
2023-01-26T06:54:17.072Z,0.08
2023-01-26T06:55:16.576Z,0.13
2023-01-26T06:56:17.079Z,0.15
2023-01-26T06:57:16.582Z,0.15
2023-01-26T06:58:17.084Z,0.15
2023-01-26T06:59:16.586Z,0.17
2023-01-26T07:00:17.071Z,0.15
2023-01-26T07:01:16.606Z,0.20
2023-01-26T07:02:16.929Z,0.21
2023-01-26T07:03:16.532Z,0.21
2023-01-26T07:04:17.026Z,0.20
2023-01-26T07:05:16.538Z,0.17
2023-01-26T07:06:17.046Z,0.14
2023-01-26T07:07:16.554Z,0.14
2023-01-26T07:08:17.073Z,0.11
2023-01-26T07:09:16.576Z,0.11
2023-01-26T07:10:17.118Z,0.11
2023-01-26T07:11:16.668Z,0.04
2023-01-26T07:12:17.087Z,0.01
2023-01-26T07:13:16.593Z,0.07
2023-01-26T07:14:17.125Z,0.08
2023-01-26T07:15:16.653Z,0.05
2023-01-26T07:16:17.169Z,0.02
2023-01-26T07:17:16.734Z,0.01
2023-01-26T07:18:17.245Z,0.05
2023-01-26T07:19:16.712Z,0.07
2023-01-26T07:20:17.215Z,0.07
2023-01-26T07:21:16.715Z,0.07
2023-01-26T07:22:17.222Z,0.11
2023-01-26T07:23:16.710Z,0.10
2023-01-26T07:24:17.302Z,0.13
2023-01-26T07:25:16.870Z,0.15
2023-01-26T07:26:16.357Z,0.15
2023-01-26T07:27:16.891Z,0.18
2023-01-26T07:28:16.463Z,0.17
2023-01-26T07:29:16.972Z,0.11
2023-01-26T07:30:16.492Z,0.11
2023-01-26T07:31:17.061Z,0.13
2023-01-26T07:32:16.306Z,0.10
2023-01-26T07:33:16.812Z,0.10
2023-01-26T07:34:16.301Z,0.05
2023-01-26T07:35:16.844Z,0.11
2023-01-26T07:36:16.381Z,0.14
2023-01-26T07:37:16.902Z,0.11
2023-01-26T07:38:16.449Z,0.04
2023-01-26T07:39:16.956Z,0.05
2023-01-26T07:40:16.458Z,0.08
2023-01-26T07:41:16.987Z,0.13
2023-01-26T07:42:16.516Z,0.14
2023-01-26T07:43:17.133Z,0.11
2023-01-26T07:44:16.701Z,0.08
2023-01-26T07:45:17.270Z,0.10
2023-01-26T07:46:16.797Z,0.10
2023-01-26T07:47:16.364Z,0.11
2023-01-26T07:48:16.905Z,0.10
2023-01-26T07:49:16.446Z,0.13
2023-01-26T07:50:16.947Z,0.13
2023-01-26T07:51:16.447Z,0.13
2023-01-26T07:52:17.134Z,0.15
2023-01-26T07:53:16.623Z,0.18
2023-01-26T07:54:17.203Z,0.20
2023-01-26T07:55:16.701Z,0.18
2023-01-26T07:56:17.193Z,0.14
2023-01-26T07:57:16.675Z,0.15
2023-01-26T07:58:17.152Z,0.08
2023-01-26T07:59:16.644Z,0.08
2023-01-26T08:00:17.145Z,0.08
2023-01-26T08:01:16.670Z,0.13
2023-01-26T08:02:16.560Z,0.13
2023-01-26T08:03:17.084Z,0.15
2023-01-26T08:04:16.590Z,0.17
2023-01-26T08:05:17.114Z,0.17
2023-01-26T08:06:16.786Z,0.21
2023-01-26T08:07:16.391Z,0.22
2023-01-26T08:08:16.883Z,0.20
2023-01-26T08:09:16.393Z,0.18
2023-01-26T08:10:16.899Z,0.22
2023-01-26T08:11:16.423Z,0.18
2023-01-26T08:12:17.254Z,0.18
2023-01-26T08:13:21.000Z,0.17
2023-01-26T08:14:16.742Z,0.17
2023-01-26T08:15:17.258Z,0.22
2023-01-26T08:16:16.786Z,0.22
2023-01-26T08:17:16.439Z,0.25
2023-01-26T08:18:16.938Z,0.26
2023-01-26T08:19:16.481Z,0.22
2023-01-26T08:20:17.044Z,0.22
2023-01-26T08:21:16.557Z,0.24
2023-01-26T08:22:17.035Z,0.25
2023-01-26T08:23:16.552Z,0.26
2023-01-26T08:24:17.137Z,0.26
2023-01-26T08:25:16.723Z,0.26
2023-01-26T08:26:17.282Z,0.22
2023-01-26T08:27:16.835Z,0.20
2023-01-26T08:28:16.361Z,0.24
2023-01-26T08:29:16.854Z,0.25
2023-01-26T08:30:16.397Z,0.22
2023-01-26T08:31:17.043Z,0.24
2023-01-26T08:32:16.503Z,0.22
2023-01-26T08:33:16.985Z,0.22
2023-01-26T08:34:16.521Z,0.24
2023-01-26T08:35:17.010Z,0.21
2023-01-26T08:36:16.494Z,0.17
2023-01-26T08:37:17.010Z,0.20
2023-01-26T08:38:16.531Z,0.20
2023-01-26T08:39:17.047Z,0.21
2023-01-26T08:40:16.577Z,0.24
2023-01-26T08:41:17.096Z,0.25
2023-01-26T08:42:16.432Z,0.14
2023-01-26T08:43:16.932Z,0.08
2023-01-26T08:44:16.453Z,0.07
2023-01-26T08:45:16.942Z,0.04
2023-01-26T08:46:16.617Z,0.10
2023-01-26T08:47:17.292Z,0.13
2023-01-26T08:48:16.766Z,0.17
2023-01-26T08:49:17.272Z,0.21
2023-01-26T08:50:16.766Z,0.26
2023-01-26T08:51:17.257Z,0.29
2023-01-26T08:52:16.877Z,0.24
2023-01-26T08:53:16.400Z,0.21
2023-01-26T08:54:16.891Z,0.20
2023-01-26T08:55:16.422Z,0.21
2023-01-26T08:56:16.910Z,0.18
2023-01-26T08:57:16.421Z,0.17
2023-01-26T08:58:16.940Z,0.13
2023-01-26T08:59:16.476Z,0.17
2023-01-26T09:00:16.994Z,0.18
2023-01-26T09:01:16.510Z,0.22
2023-01-26T09:02:17.134Z,0.20
2023-01-26T09:03:16.887Z,0.17
2023-01-26T09:04:16.540Z,0.14
2023-01-26T09:05:17.023Z,0.18
2023-01-26T09:06:16.536Z,0.22
2023-01-26T09:07:17.058Z,0.25
2023-01-26T09:08:16.582Z,0.26
2023-01-26T09:09:17.105Z,0.26
2023-01-26T09:10:16.630Z,0.25
2023-01-26T09:11:17.163Z,0.25
2023-01-26T09:12:16.594Z,0.24
2023-01-26T09:13:17.127Z,0.24
2023-01-26T09:14:16.604Z,0.24
2023-01-26T09:15:17.108Z,0.22
2023-01-26T09:16:16.599Z,0.22
2023-01-26T09:17:17.197Z,0.25
2023-01-26T09:18:16.707Z,0.28
2023-01-26T09:19:17.180Z,0.28
2023-01-26T09:20:16.677Z,0.29
2023-01-26T09:21:17.203Z,0.29
2023-01-26T09:22:16.750Z,0.29
2023-01-26T09:23:17.289Z,0.32
2023-01-26T09:24:16.853Z,0.35
2023-01-26T09:25:16.503Z,0.32
2023-01-26T09:26:16.998Z,0.39
2023-01-26T09:27:16.510Z,0.42
2023-01-26T09:28:17.063Z,0.42
2023-01-26T09:29:16.556Z,0.42
2023-01-26T09:30:17.118Z,0.42
2023-01-26T09:31:16.715Z,0.43
2023-01-26T09:32:17.302Z,0.42
2023-01-26T09:33:16.838Z,0.45
2023-01-26T09:34:16.352Z,0.45
2023-01-26T09:35:17.455Z,0.48
2023-01-26T09:36:16.740Z,0.49
2023-01-26T09:37:17.288Z,0.48
2023-01-26T09:38:16.861Z,0.46
2023-01-26T09:39:16.397Z,0.48
2023-01-26T09:40:16.899Z,0.46
2023-01-26T09:41:16.402Z,0.45
2023-01-26T09:42:16.828Z,0.42
2023-01-26T09:43:16.322Z,0.43
2023-01-26T09:44:16.818Z,0.45
2023-01-26T09:45:16.363Z,0.45
2023-01-26T09:46:16.931Z,0.45
2023-01-26T09:47:16.535Z,0.49
2023-01-26T09:48:17.041Z,0.45
2023-01-26T09:49:16.536Z,0.39
2023-01-26T09:50:17.042Z,0.36
2023-01-26T09:51:16.542Z,0.38
2023-01-26T09:52:17.273Z,0.42
2023-01-26T09:53:16.754Z,0.43
2023-01-26T09:54:17.290Z,0.43
2023-01-26T09:55:17.024Z,0.46
2023-01-26T09:56:17.290Z,0.49
2023-01-26T09:57:16.784Z,0.46
2023-01-26T09:58:17.279Z,0.48
2023-01-26T09:59:16.795Z,0.49
2023-01-26T10:00:16.338Z,0.46
2023-01-26T10:01:16.889Z,0.46
2023-01-26T10:02:16.611Z,0.46
2023-01-26T10:03:17.168Z,0.45
2023-01-26T10:04:16.653Z,0.41
2023-01-26T10:05:17.137Z,0.39
2023-01-26T10:06:16.653Z,0.42
2023-01-26T10:07:17.187Z,0.48
2023-01-26T10:08:16.694Z,0.52
2023-01-26T10:09:17.221Z,0.52
2023-01-26T10:10:16.717Z,0.52
2023-01-26T10:11:17.242Z,0.48
2023-01-26T10:12:16.736Z,0.51
2023-01-26T10:13:17.258Z,0.52
2023-01-26T10:14:16.796Z,0.52
2023-01-26T10:15:17.303Z,0.51
2023-01-26T10:16:16.854Z,0.52
2023-01-26T10:17:16.392Z,0.48
2023-01-26T10:18:16.862Z,0.43
2023-01-26T10:19:16.342Z,0.42
2023-01-26T10:20:16.879Z,0.46
2023-01-26T10:21:16.396Z,0.51
2023-01-26T10:22:16.753Z,0.51
2023-01-26T10:23:17.240Z,0.51
2023-01-26T10:24:16.763Z,0.51
2023-01-26T10:25:16.327Z,0.46
2023-01-26T10:26:17.062Z,0.46
2023-01-26T10:27:16.576Z,0.41
2023-01-26T10:28:17.096Z,0.42
2023-01-26T10:29:16.630Z,0.43
2023-01-26T10:30:17.147Z,0.43
2023-01-26T10:31:17.035Z,0.34
2023-01-26T10:32:16.472Z,0.25
2023-01-26T10:33:17.089Z,0.28
2023-01-26T10:34:17.132Z,0.31
2023-01-26T10:35:16.621Z,0.36
2023-01-26T10:36:17.114Z,0.41
2023-01-26T10:37:16.619Z,0.45
2023-01-26T10:38:17.119Z,0.49
2023-01-26T10:39:16.639Z,0.55
2023-01-26T10:40:17.125Z,0.57
2023-01-26T10:41:16.675Z,0.57
2023-01-26T10:42:16.455Z,0.52
2023-01-26T10:43:16.961Z,0.48
2023-01-26T10:44:16.453Z,0.55
2023-01-26T10:45:16.959Z,0.60
2023-01-26T10:46:16.489Z,0.62
2023-01-26T10:47:17.021Z,0.59
2023-01-26T10:48:16.527Z,0.57
2023-01-26T10:49:17.023Z,0.55
2023-01-26T10:50:16.594Z,0.53
2023-01-26T10:51:17.114Z,0.53
2023-01-26T10:52:16.472Z,0.53
2023-01-26T10:53:17.007Z,0.57
2023-01-26T10:54:16.496Z,0.59
2023-01-26T10:55:17.051Z,0.57
2023-01-26T10:56:16.560Z,0.59
2023-01-26T10:57:17.063Z,0.57
2023-01-26T10:58:16.593Z,0.51
2023-01-26T10:59:17.081Z,0.52
2023-01-26T11:00:16.618Z,0.48
2023-01-26T11:01:17.131Z,0.51
2023-01-26T11:02:16.608Z,0.52
2023-01-26T11:03:17.142Z,0.59
2023-01-26T11:04:16.701Z,0.60
2023-01-26T11:05:16.670Z,0.59
2023-01-26T11:06:17.193Z,0.59
2023-01-26T11:07:16.733Z,0.57
2023-01-26T11:08:17.241Z,0.56
2023-01-26T11:09:16.751Z,0.56
2023-01-26T11:10:17.256Z,0.48
2023-01-26T11:11:17.134Z,0.53
2023-01-26T11:12:16.592Z,0.52
2023-01-26T11:13:17.125Z,0.53
2023-01-26T11:14:16.672Z,0.42
2023-01-26T11:15:17.170Z,0.29
2023-01-26T11:16:16.809Z,0.20
2023-01-26T11:17:16.497Z,0.11
2023-01-26T11:18:17.003Z,0.25
2023-01-26T11:19:16.501Z,0.28
2023-01-26T11:20:17.026Z,0.31
2023-01-26T11:21:16.518Z,0.25
2023-01-26T11:22:16.937Z,0.18
2023-01-26T11:23:16.438Z,0.13
2023-01-26T11:24:16.954Z,0.13
2023-01-26T11:25:16.673Z,0.20
2023-01-26T11:26:17.215Z,0.22
2023-01-26T11:27:16.729Z,0.28
2023-01-26T11:28:17.223Z,0.35
2023-01-26T11:29:16.715Z,0.26
2023-01-26T11:30:17.212Z,0.26
2023-01-26T11:31:16.796Z,0.28
2023-01-26T11:32:17.212Z,0.32
2023-01-26T11:33:16.722Z,0.32
2023-01-26T11:34:17.244Z,0.36
2023-01-26T11:35:16.768Z,0.34
2023-01-26T11:36:17.297Z,0.32
2023-01-26T11:37:16.805Z,0.36
2023-01-26T11:38:16.351Z,0.38
2023-01-26T11:39:16.860Z,0.41
2023-01-26T11:40:16.408Z,0.43
2023-01-26T11:41:16.875Z,0.48
2023-01-26T11:42:16.775Z,0.43
2023-01-26T11:43:17.281Z,0.42
2023-01-26T11:44:16.774Z,0.45
2023-01-26T11:45:17.297Z,0.45
2023-01-26T11:46:16.803Z,0.39
2023-01-26T11:47:16.321Z,0.25
2023-01-26T11:48:16.850Z,0.22
2023-01-26T11:49:16.374Z,0.08
2023-01-26T11:50:16.885Z,0.07
2023-01-26T11:51:16.421Z,0.02
2023-01-26T11:52:17.085Z,0.11
2023-01-26T11:53:16.611Z,0.17
2023-01-26T11:54:17.098Z,0.24
2023-01-26T11:55:16.609Z,0.25
2023-01-26T11:56:17.107Z,0.26
2023-01-26T11:57:16.602Z,0.32
2023-01-26T11:58:17.107Z,0.21
2023-01-26T11:59:16.594Z,0.21
2023-01-26T12:00:28.893Z,0.22
2023-01-26T12:01:16.399Z,0.24
2023-01-26T12:02:17.157Z,0.25
2023-01-26T12:03:16.961Z,0.25
2023-01-26T12:04:16.493Z,0.21
2023-01-26T12:05:16.966Z,0.21
2023-01-26T12:06:16.469Z,0.24
2023-01-26T12:07:17.002Z,0.29
2023-01-26T12:08:16.491Z,0.28
2023-01-26T12:09:17.008Z,0.28
2023-01-26T12:10:16.522Z,0.31
2023-01-26T12:11:17.008Z,0.34
2023-01-26T12:12:16.535Z,0.35
2023-01-26T12:13:17.059Z,0.34
2023-01-26T12:14:16.558Z,0.28
2023-01-26T12:15:17.083Z,0.26
2023-01-26T12:16:16.666Z,0.18
2023-01-26T12:17:18.571Z,0.20
2023-01-26T12:18:16.533Z,0.13
2023-01-26T12:19:17.060Z,0.07
2023-01-26T12:20:16.582Z,0.10
2023-01-26T12:21:17.129Z,0.15
2023-01-26T12:22:16.498Z,0.21
2023-01-26T12:23:17.040Z,0.24
2023-01-26T12:24:39.510Z,0.28
2023-01-26T12:25:19.648Z,0.28
2023-01-26T12:26:17.001Z,0.31
2023-01-26T12:27:16.518Z,0.29
2023-01-26T12:28:17.025Z,0.31
2023-01-26T12:29:16.571Z,0.35
2023-01-26T12:30:17.071Z,0.28
2023-01-26T12:31:16.670Z,0.29
2023-01-26T12:32:16.427Z,0.26
2023-01-26T12:33:16.935Z,0.26
2023-01-26T12:34:16.445Z,0.28
2023-01-26T12:35:16.961Z,0.29
2023-01-26T12:36:16.479Z,0.26
2023-01-26T12:37:16.994Z,0.28
2023-01-26T12:38:18.074Z,0.29
2023-01-26T12:39:17.018Z,0.25
2023-01-26T12:40:16.525Z,0.18
2023-01-26T12:41:17.039Z,0.20
2023-01-26T12:42:16.394Z,0.20
2023-01-26T12:43:16.913Z,0.25
2023-01-26T12:44:16.402Z,0.28
2023-01-26T12:45:18.439Z,0.28
2023-01-26T12:46:17.191Z,0.25
2023-01-26T12:47:16.699Z,0.22
2023-01-26T12:48:17.212Z,0.24
2023-01-26T12:49:16.703Z,0.24
2023-01-26T12:50:17.498Z,0.26
2023-01-26T12:51:17.204Z,0.32
2023-01-26T12:52:17.114Z,0.39
2023-01-26T12:53:16.617Z,0.36
2023-01-26T12:54:17.151Z,0.39
2023-01-26T12:55:16.671Z,0.31
2023-01-26T12:56:17.175Z,0.36
2023-01-26T12:57:16.646Z,0.38
2023-01-26T12:58:17.165Z,0.35
2023-01-26T12:59:23.179Z,0.38
2023-01-26T13:00:17.203Z,0.39
2023-01-26T13:01:16.724Z,0.35
2023-01-26T13:02:16.586Z,0.39
2023-01-26T13:03:17.187Z,0.38
2023-01-26T13:04:16.772Z,0.36
2023-01-26T13:05:16.315Z,0.39
2023-01-26T13:06:16.836Z,0.38
2023-01-26T13:07:16.370Z,0.35
2023-01-26T13:08:16.899Z,0.32
2023-01-26T13:09:16.436Z,0.36
2023-01-26T13:10:16.951Z,0.41
2023-01-26T13:11:16.452Z,0.39
2023-01-26T13:12:17.332Z,0.42
2023-01-26T13:13:16.811Z,0.41
2023-01-26T13:14:17.309Z,0.38
2023-01-26T13:15:16.809Z,0.39
2023-01-26T13:16:17.403Z,0.39
2023-01-26T13:17:17.064Z,0.38
2023-01-26T13:18:16.623Z,0.41